Airfield :
LOGIN :

Register | Disclaimer

   EN    FR    IT 

 










Legend :    VFR   Marginal VFR   IFR   Intensive IFR   Very Intensive IFR
Visi :
Ceiling :
>= 8 km
>= 3000ft
5 to 8 km
1000 to 3000 ft
1500m to 5 km
500 to 1000 ft
800 to 1500m
200 to 500 ft
< 800m
< 200 ft
Symbols :   Thunderstorms  Fog  Heavy snow  Heavy precipitations  Wind > 20 kt
SIGMETs :     Misc.  Thunderstorms  Icing  Turbulence  Mountain Waves  Volcanic Ashes







- Airport Elevation : 628 ft
- IATA code : CMR
- Download approach charts


LFGA - Colmar-Houssen

CURRENT METAR :
  • 241230Z AUTO 03008KT 330V060 CAVOK 23/10 Q1000

EXPIRED METARs :
  • 241200Z AUTO 04007KT 010V080 CAVOK 22/10 Q1001
  • 241130Z AUTO 04007KT 360V070 CAVOK 22/11 Q1001
  • 241100Z AUTO 36007KT 340V050 CAVOK 22/11 Q1001
  • 241030Z AUTO 35004KT 300V040 CAVOK 21/11 Q1002
  • 241000Z AUTO 02005KT 330V060 CAVOK 21/10 Q1002

TAF N/A
No reported NOTAMs for that airfield.
2 SIGMETs reported for the Reims FIR (LFEE) :
 
Embedded thunderstorms
LFEE SIGMET 5 VALID 241240/241400 LFPW
LFEE REIMS FIR/UIR EMBD TS OBS WI N4845 E00645 - N4730 E00715 - N4715 E00630 - N4830 E00630 - N4845 E00645 TOP FL340 MOV NE 15KT INTSF=
Severe turbulence
LFEE SIGMET 4 VALID 241100/241500 LFPW
LFEE REIMS FIR/UIR SEV TURB FCST WI N4630 E00530 - N4630 E00445 - N4730 E00415 - N4830 E00530 - N4900 E00445 - N4900 E00600 - N4630 E00530 SFC/FL100 STNR INTSF=



MET'MAP, your aeronautical weather chart ! - Copyright ORBIFLY December 2007 - Disclaimer

ORBIFLY MET'MAP TEAM :

Programming & Development : Alexandra Zaïnal
Concept & Development : Baudouin d'Aumeries
Co-Development & Prog : Marc-Olivier Méhu
Technical & hardware support : Manuel Goepfert

Contact : metmap@orbifly.com




SOURCES & CREDITS :

   NOAA